Time;durP1;ratioP1;P1;durP2;ratioP2;P2;SDS_P1;SDS_P2;PMS_P1;PMS_P2;Temp;Humidity;BMP_temperature;BMP_pressure;BME280_temperature;BME280_humidity;BME280_pressure;Samples;Min_cycle;Max_cycle;Signal;HPM_P1;HPM_P2
2021/07/04 00:00:56;;;;;;;5.67;5.13;;;19.10;99.90;;;;;;5075774;28;20460;-74
2021/07/04 00:03:23;;;;;;;6.13;5.53;;;19.30;99.90;;;;;;5075747;28;20799;-73
2021/07/04 00:05:51;;;;;;;5.28;4.80;;;19.40;99.90;;;;;;5075746;28;20446;-73
2021/07/04 00:08:22;;;;;;;6.15;5.07;;;19.30;99.90;;;;;;5075603;28;20723;-73
2021/07/04 00:10:53;;;;;;;5.00;4.60;;;19.30;99.90;;;;;;5075640;28;20210;-73
2021/07/04 00:13:20;;;;;;;5.00;4.47;;;19.40;99.90;;;;;;5075778;28;20215;-73
2021/07/04 00:15:48;;;;;;;5.72;5.22;;;19.40;99.90;;;;;;5075692;28;20487;-73
2021/07/04 00:18:17;;;;;;;8.30;5.13;;;19.40;99.90;;;;;;5076052;28;20233;-73
2021/07/04 00:20:45;;;;;;;5.15;4.65;;;19.50;99.90;;;;;;5075446;28;20867;-73
2021/07/04 00:23:12;;;;;;;5.20;4.70;;;19.60;99.90;;;;;;5075526;28;20771;-73
2021/07/04 00:25:42;;;;;;;5.47;4.83;;;19.60;99.90;;;;;;5075339;28;20199;-73
2021/07/04 00:28:09;;;;;;;5.27;4.77;;;19.70;99.90;;;;;;5075184;28;20976;-73
2021/07/04 00:30:36;;;;;;;5.60;4.57;;;19.70;99.90;;;;;;5075279;28;20449;-73
2021/07/04 00:33:04;;;;;;;5.63;5.13;;;19.70;99.90;;;;;;5075446;28;20475;-73
2021/07/04 00:35:31;;;;;;;5.13;4.73;;;19.80;99.90;;;;;;5075333;28;20484;-73
2021/07/04 00:37:58;;;;;;;6.47;5.73;;;19.80;99.90;;;;;;5075349;28;20549;-73
2021/07/04 00:40:26;;;;;;;6.10;5.53;;;19.90;99.90;;;;;;5074983;28;20536;-73
2021/07/04 00:42:55;;;;;;;6.68;5.95;;;19.70;99.90;;;;;;5074918;28;20460;-73
2021/07/04 00:45:24;;;;;;;5.70;5.20;;;19.60;99.90;;;;;;5075150;28;20293;-73
2021/07/04 00:47:52;;;;;;;5.60;5.10;;;19.70;99.90;;;;;;5074790;28;20780;-73
2021/07/04 00:50:22;;;;;;;6.25;5.20;;;19.70;99.90;;;;;;5074899;28;20645;-73
2021/07/04 00:52:49;;;;;;;6.03;5.43;;;19.60;99.90;;;;;;5075029;28;20216;-74
2021/07/04 00:55:18;;;;;;;5.57;5.07;;;19.50;99.90;;;;;;5074904;28;20589;-73
2021/07/04 00:57:45;;;;;;;6.63;6.03;;;19.40;99.90;;;;;;5074609;28;20704;-73
2021/07/04 01:00:16;;;;;;;8.18;6.45;;;19.30;99.90;;;;;;5075706;28;20239;-74
2021/07/04 01:02:43;;;;;;;6.43;5.82;;;19.10;99.90;;;;;;5077732;28;20247;-73
2021/07/04 01:05:12;;;;;;;6.50;5.90;;;19.00;99.90;;;;;;5078017;28;20209;-73
2021/07/04 01:07:40;;;;;;;7.78;5.45;;;18.90;99.90;;;;;;5077329;28;20235;-73
2021/07/04 01:10:13;;;;;;;6.30;5.70;;;18.90;99.90;;;;;;5076845;28;20568;-74
2021/07/04 01:12:40;;;;;;;6.30;5.70;;;18.90;99.90;;;;;;5076460;28;20206;-74
2021/07/04 01:15:08;;;;;;;7.13;6.25;;;18.90;99.90;;;;;;5075747;28;20209;-74
2021/07/04 01:17:37;;;;;;;9.57;5.53;;;19.00;99.90;;;;;;5075102;28;20245;-73
2021/07/04 01:20:09;;;;;;;8.02;5.85;;;19.20;99.90;;;;;;5074533;28;20211;-73
2021/07/04 01:22:38;;;;;;;6.05;5.53;;;19.30;99.90;;;;;;5075142;28;20291;-74
2021/07/04 01:25:07;;;;;;;5.90;5.40;;;19.40;99.90;;;;;;5075122;28;20298;-73
2021/07/04 01:27:35;;;;;;;6.40;5.80;;;19.40;99.90;;;;;;5075059;28;20801;-74
2021/07/04 01:30:02;;;;;;;5.93;5.38;;;19.40;99.90;;;;;;5075523;28;20297;-75
2021/07/04 01:32:28;;;;;;;6.03;5.50;;;19.30;99.90;;;;;;5075318;28;20198;-74
2021/07/04 01:34:55;;;;;;;6.63;6.03;;;19.20;99.90;;;;;;5076056;28;20452;-73
2021/07/04 01:37:22;;;;;;;6.10;5.50;;;19.10;99.90;;;;;;5076359;28;20310;-73
2021/07/04 01:39:49;;;;;;;6.30;5.70;;;19.00;99.90;;;;;;5076692;28;20297;-73
2021/07/04 01:42:17;;;;;;;6.72;6.03;;;18.90;99.90;;;;;;5076225;28;20313;-74
2021/07/04 01:44:44;;;;;;;6.55;5.95;;;19.00;99.90;;;;;;5075550;28;20208;-74
2021/07/04 01:47:11;;;;;;;6.45;5.70;;;19.10;99.90;;;;;;5075043;28;20310;-73
2021/07/04 01:49:38;;;;;;;6.50;5.90;;;19.10;99.90;;;;;;5075386;28;20309;-74
2021/07/04 01:52:05;;;;;;;6.90;6.20;;;19.00;99.90;;;;;;5075649;28;20666;-74
2021/07/04 01:54:33;;;;;;;6.45;5.85;;;18.90;99.90;;;;;;5075831;28;20238;-74
2021/07/04 01:57:11;;;;;;;6.65;6.05;;;18.80;99.90;;;;;;5076600;28;20262;-74
2021/07/04 01:59:39;;;;;;;5.97;5.47;;;18.70;99.90;;;;;;5075281;28;20194;-74
2021/07/04 02:02:06;;;;;;;6.78;6.07;;;18.70;99.90;;;;;;5073707;28;20617;-73
2021/07/04 02:04:38;;;;;;;6.20;5.60;;;18.70;99.90;;;;;;5073622;28;20289;-73
2021/07/04 02:07:05;;;;;;;6.90;6.28;;;18.60;99.90;;;;;;5073598;28;20242;-73
2021/07/04 02:09:32;;;;;;;6.40;5.80;;;18.60;99.90;;;;;;5073772;28;20569;-73
2021/07/04 02:11:59;;;;;;;7.10;6.50;;;18.60;99.90;;;;;;5073484;28;20204;-74
2021/07/04 02:14:30;;;;;;;6.32;5.72;;;18.70;99.90;;;;;;5073434;28;20229;-73
2021/07/04 02:16:58;;;;;;;7.10;6.50;;;18.80;99.90;;;;;;5073027;28;20243;-73
2021/07/04 02:19:31;;;;;;;7.40;5.57;;;18.90;99.90;;;;;;5073473;28;20199;-73
2021/07/04 02:21:58;;;;;;;6.68;6.05;;;18.90;99.90;;;;;;5073482;28;20216;-73
2021/07/04 02:24:25;;;;;;;7.78;6.55;;;19.00;99.90;;;;;;5073334;28;20202;-73
2021/07/04 02:26:53;;;;;;;7.40;6.20;;;18.90;99.90;;;;;;5073389;28;20309;-73
2021/07/04 02:29:20;;;;;;;9.75;6.15;;;18.60;99.90;;;;;;5073317;28;20210;-73
2021/07/04 02:31:46;;;;;;;6.78;6.07;;;18.50;99.90;;;;;;5073320;28;20213;-73
2021/07/04 02:34:15;;;;;;;6.63;5.93;;;18.40;99.90;;;;;;5073494;28;20207;-73
2021/07/04 02:36:41;;;;;;;7.90;6.35;;;18.50;99.90;;;;;;5073231;28;20230;-73
2021/07/04 02:39:09;;;;;;;6.82;6.13;;;18.60;99.90;;;;;;5073109;28;20199;-73
2021/07/04 02:41:36;;;;;;;6.38;5.53;;;18.70;99.90;;;;;;5073183;28;20211;-73
2021/07/04 02:44:03;;;;;;;7.32;6.47;;;18.70;99.90;;;;;;5073394;28;20400;-73
2021/07/04 02:46:31;;;;;;;6.90;6.20;;;18.70;99.90;;;;;;5073325;28;20222;-73
2021/07/04 02:48:58;;;;;;;6.90;6.20;;;18.70;99.90;;;;;;5073437;28;20206;-73
2021/07/04 02:51:26;;;;;;;6.70;6.07;;;18.80;99.90;;;;;;5073003;28;20294;-73
2021/07/04 02:53:54;;;;;;;9.13;7.32;;;18.80;99.90;;;;;;5073213;28;20204;-73
2021/07/04 02:56:21;;;;;;;7.90;6.38;;;18.80;99.90;;;;;;5073158;28;20249;-74
2021/07/04 02:58:47;;;;;;;7.85;6.60;;;18.80;99.90;;;;;;5073757;28;20210;-73
2021/07/04 03:01:14;;;;;;;7.80;6.85;;;18.80;99.90;;;;;;5076125;28;20223;-74
2021/07/04 03:03:41;;;;;;;7.85;7.05;;;18.70;99.90;;;;;;5075775;28;20199;-73
2021/07/04 03:06:08;;;;;;;8.05;7.10;;;18.60;99.90;;;;;;5076041;28;20733;-74
2021/07/04 03:08:36;;;;;;;7.90;7.10;;;18.60;99.90;;;;;;5076435;28;20266;-74
2021/07/04 03:11:03;;;;;;;8.27;6.85;;;18.50;99.90;;;;;;5076715;28;20624;-73
2021/07/04 03:13:30;;;;;;;8.63;7.38;;;18.40;99.90;;;;;;5076405;28;20293;-73
2021/07/04 03:15:57;;;;;;;9.07;7.45;;;18.30;99.90;;;;;;5076385;28;20215;-74
2021/07/04 03:18:23;;;;;;;7.68;6.97;;;18.20;99.90;;;;;;5076420;28;20310;-73
2021/07/04 03:20:51;;;;;;;8.77;6.68;;;18.30;99.90;;;;;;5076026;28;20293;-74
2021/07/04 03:23:18;;;;;;;7.50;6.80;;;18.40;99.90;;;;;;5076166;28;20199;-73
2021/07/04 03:25:46;;;;;;;6.80;6.10;;;18.50;99.90;;;;;;5075407;28;20199;-73
2021/07/04 03:28:13;;;;;;;7.60;6.80;;;18.60;99.90;;;;;;5078298;28;20314;-74
2021/07/04 03:30:40;;;;;;;7.20;6.50;;;18.70;99.90;;;;;;5078799;28;20300;-74
2021/07/04 03:33:07;;;;;;;9.82;6.53;;;18.80;99.90;;;;;;5079042;28;20656;-73
2021/07/04 03:35:34;;;;;;;6.95;5.97;;;18.90;99.90;;;;;;5078365;28;20203;-74
2021/07/04 03:38:01;;;;;;;6.20;5.60;;;18.90;99.90;;;;;;5078004;28;20303;-74
2021/07/04 03:40:27;;;;;;;6.55;5.95;;;18.90;99.90;;;;;;5077780;28;20256;-74
2021/07/04 03:42:56;;;;;;;7.30;6.63;;;19.00;99.90;;;;;;5077714;28;20207;-74
2021/07/04 03:45:22;;;;;;;6.85;6.25;;;18.90;99.90;;;;;;5078647;28;20219;-73
2021/07/04 03:47:49;;;;;;;7.20;6.50;;;18.70;99.90;;;;;;5079426;28;20291;-74
2021/07/04 03:50:16;;;;;;;6.95;6.25;;;18.60;99.90;;;;;;5078751;28;20242;-73
2021/07/04 03:52:44;;;;;;;8.70;6.72;;;18.60;99.90;;;;;;5079136;28;20294;-74
2021/07/04 03:55:12;;;;;;;7.93;6.95;;;18.70;99.90;;;;;;5078226;28;20234;-73
2021/07/04 03:57:38;;;;;;;7.10;6.35;;;18.70;99.90;;;;;;5078592;28;20590;-73
2021/07/04 04:00:09;;;;;;;6.90;6.10;;;18.70;99.90;;;;;;5077053;28;20300;-73
2021/07/04 04:02:35;;;;;;;8.18;7.05;;;18.60;99.90;;;;;;5076014;28;20205;-73
2021/07/04 04:05:03;;;;;;;7.03;6.35;;;18.60;99.90;;;;;;5076007;28;20234;-73
2021/07/04 04:07:30;;;;;;;7.15;6.45;;;18.60;99.90;;;;;;5075935;28;20223;-73
2021/07/04 04:09:57;;;;;;;8.98;7.13;;;18.60;99.90;;;;;;5075767;28;20202;-73
2021/07/04 04:12:24;;;;;;;8.20;7.40;;;18.60;99.90;;;;;;5075841;28;20199;-73
2021/07/04 04:14:51;;;;;;;7.05;6.45;;;18.60;99.90;;;;;;5075744;28;20213;-73
2021/07/04 04:17:19;;;;;;;7.63;6.90;;;18.60;99.90;;;;;;5075510;28;20226;-73
2021/07/04 04:19:46;;;;;;;8.95;6.93;;;18.70;99.90;;;;;;5075712;28;20209;-73
2021/07/04 04:22:13;;;;;;;7.78;6.97;;;18.70;99.90;;;;;;5075492;28;20207;-73
2021/07/04 04:24:40;;;;;;;7.90;6.97;;;18.70;99.90;;;;;;5075624;28;20229;-73
2021/07/04 04:27:07;;;;;;;7.85;7.05;;;18.80;99.90;;;;;;5075513;28;20250;-73
2021/07/04 04:29:34;;;;;;;7.53;6.82;;;18.70;99.90;;;;;;5075555;28;20200;-73
2021/07/04 04:32:01;;;;;;;7.13;6.43;;;18.70;99.90;;;;;;5075066;28;20200;-73
2021/07/04 04:34:29;;;;;;;7.75;7.05;;;18.80;99.90;;;;;;5075444;28;20290;-73
2021/07/04 04:36:56;;;;;;;7.47;6.78;;;18.80;99.90;;;;;;5075136;28;20230;-73
2021/07/04 04:39:23;;;;;;;7.57;6.83;;;18.90;99.90;;;;;;5074080;28;20668;-73
2021/07/04 04:41:50;;;;;;;7.63;6.80;;;19.10;99.90;;;;;;5074796;28;20544;-73
2021/07/04 04:44:17;;;;;;;6.80;6.20;;;19.20;99.90;;;;;;5075203;28;20445;-73
2021/07/04 04:46:45;;;;;;;7.67;6.87;;;19.30;99.90;;;;;;5075150;28;20545;-73
2021/07/04 04:49:12;;;;;;;6.70;6.10;;;19.30;99.90;;;;;;5074994;28;20439;-73
2021/07/04 04:51:41;;;;;;;7.07;6.37;;;19.20;99.90;;;;;;5074911;28;20292;-73
2021/07/04 04:54:09;;;;;;;6.80;6.20;;;19.30;99.90;;;;;;5074934;28;20913;-73
2021/07/04 04:56:36;;;;;;;6.80;6.07;;;19.30;99.90;;;;;;5074832;28;20572;-73
2021/07/04 04:59:04;;;;;;;6.83;6.23;;;19.50;99.90;;;;;;5074999;28;20455;-73
2021/07/04 05:01:31;;;;;;;6.63;6.03;;;19.50;99.90;;;;;;5075164;28;20524;-73
2021/07/04 05:03:58;;;;;;;7.70;6.87;;;19.50;99.90;;;;;;5075111;28;20995;-73
2021/07/04 05:06:25;;;;;;;7.30;6.70;;;19.50;99.90;;;;;;5075186;28;20532;-74
2021/07/04 05:08:53;;;;;;;6.67;6.07;;;19.50;99.90;;;;;;5075566;28;20636;-73
2021/07/04 05:11:20;;;;;;;6.78;6.18;;;19.50;99.90;;;;;;5075587;28;20983;-73
2021/07/04 05:13:47;;;;;;;7.13;6.43;;;19.50;99.90;;;;;;5075227;28;20294;-73
2021/07/04 05:16:13;;;;;;;7.60;6.90;;;19.50;99.90;;;;;;5074709;28;20235;-73
2021/07/04 05:18:40;;;;;;;7.27;6.57;;;19.60;99.90;;;;;;5075182;28;21027;-73
2021/07/04 05:21:07;;;;;;;7.45;6.75;;;19.50;99.90;;;;;;5074993;28;20934;-74
2021/07/04 05:23:34;;;;;;;7.30;6.20;;;19.50;99.90;;;;;;5076088;28;20207;-73
2021/07/04 05:26:02;;;;;;;8.20;6.70;;;19.40;99.90;;;;;;5076432;28;20289;-73
2021/07/04 05:28:29;;;;;;;7.00;6.30;;;19.30;99.90;;;;;;5076735;28;20255;-73
2021/07/04 05:30:56;;;;;;;7.33;6.63;;;19.20;99.90;;;;;;5075497;28;20531;-73
2021/07/04 05:33:24;;;;;;;8.93;7.13;;;19.20;99.90;;;;;;5075342;28;20434;-73
2021/07/04 05:35:51;;;;;;;6.83;6.17;;;19.30;99.90;;;;;;5074588;28;20447;-73
2021/07/04 05:38:19;;;;;;;7.10;6.40;;;19.40;99.90;;;;;;5074398;28;21057;-73
2021/07/04 05:40:47;;;;;;;6.82;6.22;;;19.30;99.90;;;;;;5074615;28;20439;-74
2021/07/04 05:43:16;;;;;;;7.20;6.60;;;19.40;99.90;;;;;;5075117;28;20658;-73
2021/07/04 05:45:43;;;;;;;7.60;6.50;;;19.40;99.90;;;;;;5074742;28;20303;-74
2021/07/04 05:48:10;;;;;;;7.60;6.82;;;19.40;99.90;;;;;;5074652;28;20216;-73
2021/07/04 05:50:38;;;;;;;7.53;5.60;;;19.40;99.90;;;;;;5074019;28;20206;-73
2021/07/04 05:53:04;;;;;;;6.43;5.83;;;19.60;99.90;;;;;;5073992;28;20538;-73
2021/07/04 05:55:31;;;;;;;7.17;6.00;;;19.70;99.90;;;;;;5074071;28;20446;-74
2021/07/04 05:57:58;;;;;;;6.93;6.23;;;19.80;99.90;;;;;;5073953;28;20565;-73
2021/07/04 06:00:26;;;;;;;7.33;6.10;;;19.90;99.90;;;;;;5073786;28;20440;-73
2021/07/04 06:02:53;;;;;;;8.80;7.30;;;20.00;99.90;;;;;;5073703;28;20442;-73
2021/07/04 06:05:20;;;;;;;9.00;7.90;;;20.00;99.90;;;;;;5073892;28;20439;-73
2021/07/04 06:07:47;;;;;;;7.67;6.60;;;20.10;99.90;;;;;;5073670;28;20877;-73
2021/07/04 06:10:14;;;;;;;6.33;5.73;;;20.10;99.90;;;;;;5073302;28;20955;-74
2021/07/04 06:12:41;;;;;;;6.80;6.10;;;20.20;99.90;;;;;;5073740;28;20801;-73
2021/07/04 06:15:09;;;;;;;6.90;6.30;;;20.20;99.90;;;;;;5073568;28;20451;-73
2021/07/04 06:17:37;;;;;;;7.90;6.77;;;20.20;99.90;;;;;;5073419;28;20839;-73
2021/07/04 06:20:06;;;;;;;5.57;5.07;;;20.30;99.90;;;;;;5073477;28;20449;-73
2021/07/04 06:22:33;;;;;;;6.73;6.13;;;20.30;99.90;;;;;;5073418;28;20454;-73
2021/07/04 06:25:00;;;;;;;7.17;6.40;;;20.40;99.90;;;;;;5073574;28;20448;-73
2021/07/04 06:27:27;;;;;;;8.83;6.73;;;20.50;99.90;;;;;;5073228;28;21034;-74
2021/07/04 06:29:54;;;;;;;8.70;7.37;;;20.50;99.90;;;;;;5073259;28;20442;-75
2021/07/04 06:32:20;;;;;;;9.37;7.40;;;20.50;99.90;;;;;;5073544;28;20530;-73
2021/07/04 06:34:48;;;;;;;8.60;7.27;;;20.60;99.90;;;;;;5073486;28;20972;-74
2021/07/04 06:37:15;;;;;;;5.90;5.40;;;20.60;99.90;;;;;;5073370;28;20483;-74
2021/07/04 06:39:42;;;;;;;6.83;6.23;;;20.70;99.90;;;;;;5073321;28;20447;-73
2021/07/04 06:42:10;;;;;;;6.27;5.77;;;20.60;99.90;;;;;;5073247;28;20451;-73
2021/07/04 06:44:37;;;;;;;6.80;6.20;;;20.40;99.90;;;;;;5073391;28;20451;-74
2021/07/04 06:47:05;;;;;;;6.23;5.63;;;20.40;99.90;;;;;;5073210;28;20474;-73
2021/07/04 06:49:31;;;;;;;6.93;5.83;;;20.40;99.90;;;;;;5073465;28;20511;-73
2021/07/04 06:52:00;;;;;;;6.20;5.33;;;20.50;99.90;;;;;;5073246;28;20438;-73
2021/07/04 06:54:27;;;;;;;7.60;6.70;;;20.70;99.90;;;;;;5073358;28;20540;-74
2021/07/04 06:56:53;;;;;;;6.60;5.70;;;21.00;99.90;;;;;;5073471;28;20499;-73
2021/07/04 06:59:20;;;;;;;6.33;5.83;;;21.40;99.90;;;;;;5073009;28;20531;-74
2021/07/04 07:01:47;;;;;;;7.10;6.40;;;21.70;99.90;;;;;;5073315;28;20479;-74
2021/07/04 07:04:14;;;;;;;6.43;5.83;;;21.80;99.90;;;;;;5077383;28;20437;-74
2021/07/04 07:06:41;;;;;;;6.17;5.67;;;22.00;99.90;;;;;;5076974;28;20480;-74
2021/07/04 07:09:09;;;;;;;6.70;6.10;;;22.20;99.90;;;;;;5077118;28;20443;-74
2021/07/04 07:11:36;;;;;;;6.20;5.70;;;22.20;99.90;;;;;;5076826;28;20814;-74
2021/07/04 07:14:02;;;;;;;6.60;5.93;;;22.00;99.90;;;;;;5076752;28;20565;-74
2021/07/04 07:16:29;;;;;;;6.43;5.83;;;22.00;99.90;;;;;;5076876;28;20503;-74
2021/07/04 07:18:56;;;;;;;6.43;5.73;;;22.10;99.90;;;;;;5076769;28;20486;-74
2021/07/04 07:21:23;;;;;;;7.23;6.53;;;22.20;99.90;;;;;;5076539;28;20532;-74
2021/07/04 07:23:50;;;;;;;6.00;5.40;;;22.50;99.90;;;;;;5076793;28;20796;-73
2021/07/04 07:26:18;;;;;;;5.50;5.00;;;22.80;99.90;;;;;;5076570;28;20532;-74
2021/07/04 07:28:45;;;;;;;6.40;5.87;;;22.90;99.90;;;;;;5078031;28;20473;-74
2021/07/04 07:31:12;;;;;;;6.43;5.83;;;23.10;99.90;;;;;;5077465;28;20446;-74
2021/07/04 07:33:38;;;;;;;7.17;6.57;;;23.40;99.90;;;;;;5077727;28;20437;-74
2021/07/04 07:36:05;;;;;;;6.23;5.63;;;23.70;99.90;;;;;;5077333;28;20478;-74
2021/07/04 07:38:32;;;;;;;6.23;5.70;;;23.70;99.90;;;;;;5076265;28;20566;-73
2021/07/04 07:40:59;;;;;;;6.90;6.20;;;23.60;99.90;;;;;;5075997;28;20958;-74
2021/07/04 07:43:27;;;;;;;5.93;5.33;;;23.50;99.90;;;;;;5076355;28;20948;-74
2021/07/04 07:45:54;;;;;;;6.00;5.40;;;23.40;99.90;;;;;;5076374;28;20442;-74
2021/07/04 07:48:21;;;;;;;6.10;5.60;;;23.10;99.90;;;;;;5075996;28;20545;-73
2021/07/04 07:50:47;;;;;;;6.47;5.87;;;23.10;99.90;;;;;;5075855;28;20961;-74
2021/07/04 07:53:15;;;;;;;6.97;6.27;;;22.80;99.90;;;;;;5076201;28;20857;-73
2021/07/04 07:55:41;;;;;;;6.10;5.60;;;23.10;99.90;;;;;;5076184;28;20473;-74
2021/07/04 07:58:08;;;;;;;5.97;5.40;;;23.40;99.90;;;;;;5076006;28;20825;-73
2021/07/04 08:00:36;;;;;;;5.83;5.40;;;23.60;99.90;;;;;;5075954;28;20541;-73
2021/07/04 08:03:04;;;;;;;6.60;5.93;;;24.10;99.90;;;;;;5076083;28;20443;-74
2021/07/04 08:05:31;;;;;;;6.30;5.50;;;24.20;99.90;;;;;;5076044;28;20611;-74
2021/07/04 08:07:58;;;;;;;6.13;5.53;;;24.50;99.90;;;;;;5075883;28;21000;-73
2021/07/04 08:10:25;;;;;;;6.63;6.03;;;25.10;99.90;;;;;;5075670;28;20540;-73
2021/07/04 08:12:51;;;;;;;5.93;5.37;;;25.90;99.90;;;;;;5075811;28;20451;-74
2021/07/04 08:15:18;;;;;;;6.30;5.70;;;26.30;99.90;;;;;;5075840;28;20441;-73
2021/07/04 08:17:46;;;;;;;6.03;5.27;;;26.70;99.30;;;;;;5075617;28;21073;-74
2021/07/04 08:20:15;;;;;;;6.13;5.67;;;27.00;98.80;;;;;;5075786;28;20443;-73
2021/07/04 08:22:42;;;;;;;6.27;5.67;;;27.50;97.60;;;;;;5075642;28;20526;-73
2021/07/04 08:25:09;;;;;;;5.53;5.03;;;28.10;95.90;;;;;;5075590;28;20943;-74
2021/07/04 08:27:36;;;;;;;6.90;5.87;;;28.50;93.90;;;;;;5075242;28;21034;-74
2021/07/04 08:30:04;;;;;;;5.50;5.00;;;29.20;92.70;;;;;;5075406;28;20480;-73
2021/07/04 08:32:31;;;;;;;5.90;5.50;;;30.00;91.20;;;;;;5075532;28;20450;-74
2021/07/04 08:35:00;;;;;;;6.33;5.83;;;30.20;90.50;;;;;;5075496;28;20438;-73
2021/07/04 08:37:26;;;;;;;8.40;6.50;;;29.50;90.40;;;;;;5076036;28;20468;-74
2021/07/04 08:39:53;;;;;;;7.20;6.47;;;29.00;88.50;;;;;;5076790;28;20542;-73
2021/07/04 08:42:20;;;;;;;6.70;6.10;;;28.50;88.50;;;;;;5075440;28;20537;-74
2021/07/04 08:44:48;;;;;;;7.00;6.40;;;27.90;90.40;;;;;;5075535;28;20536;-74
2021/07/04 08:47:17;;;;;;;6.87;6.27;;;26.90;91.10;;;;;;5074922;28;21105;-73
2021/07/04 08:49:43;;;;;;;7.10;6.33;;;26.30;92.60;;;;;;5075313;28;20545;-73
2021/07/04 08:52:12;;;;;;;7.50;6.87;;;26.00;94.90;;;;;;5075191;28;20445;-74
2021/07/04 08:54:39;;;;;;;7.70;7.00;;;26.30;96.50;;;;;;5075169;28;20445;-73
2021/07/04 08:57:08;;;;;;;5.73;5.23;;;27.30;94.80;;;;;;5075742;28;20464;-73
2021/07/04 08:59:36;;;;;;;6.20;5.70;;;28.50;91.20;;;;;;5076916;28;20831;-74
2021/07/04 09:02:03;;;;;;;5.60;5.20;;;29.10;89.00;;;;;;5076946;28;20432;-74
2021/07/04 09:04:31;;;;;;;7.03;5.20;;;29.40;85.80;;;;;;5077256;28;20525;-74
2021/07/04 09:06:59;;;;;;;6.03;5.53;;;29.70;85.20;;;;;;5077414;28;20495;-74
2021/07/04 09:09:30;;;;;;;6.00;5.40;;;29.60;86.00;;;;;;5075614;28;20502;-74
2021/07/04 09:12:00;;;;;;;5.47;4.97;;;29.00;85.70;;;;;;5074644;28;20437;-73
2021/07/04 09:14:32;;;;;;;5.77;5.27;;;28.10;88.60;;;;;;5074869;28;20535;-73
2021/07/04 09:17:00;;;;;;;5.70;5.20;;;27.40;91.30;;;;;;5074388;28;20469;-73
2021/07/04 09:19:27;;;;;;;5.80;5.30;;;27.30;92.50;;;;;;5074308;28;20483;-73
2021/07/04 09:21:59;;;;;;;5.37;4.87;;;27.40;91.60;;;;;;5074394;28;20524;-73
2021/07/04 09:24:29;;;;;;;4.83;4.43;;;27.50;91.90;;;;;;5074234;28;20531;-73
2021/07/04 09:26:56;;;;;;;4.70;4.30;;;27.20;91.90;;;;;;5074443;28;20479;-73
2021/07/04 09:29:45;;;;;;;4.70;4.33;;;26.90;93.00;;;;;;5074492;28;20524;-73
2021/07/04 09:32:17;;;;;;;5.43;5.00;;;26.50;94.10;;;;;;5069911;28;20455;-73
2021/07/04 09:34:58;;;;;;;4.80;4.40;;;26.00;93.40;;;;;;5074440;28;20528;-74
2021/07/04 09:37:33;;;;;;;7.17;6.03;;;26.10;95.30;;;;;;5074070;28;20464;-74
2021/07/04 09:40:20;;;;;;;5.00;4.60;;;26.00;95.00;;;;;;5074032;28;20531;-73
2021/07/04 09:43:04;;;;;;;5.20;4.80;;;25.90;93.90;;;;;;5074062;28;20493;-73
2021/07/04 09:45:46;;;;;;;5.00;4.50;;;25.90;94.40;;;;;;5074342;28;20456;-73
2021/07/04 09:48:15;;;;;;;4.63;4.23;;;25.90;95.40;;;;;;5074101;28;20457;-73
2021/07/04 09:50:44;;;;;;;5.37;4.97;;;25.80;92.20;;;;;;5073988;28;20529;-73
2021/07/04 09:53:11;;;;;;;6.30;5.80;;;25.70;94.50;;;;;;5073780;28;20445;-73
2021/07/04 09:55:39;;;;;;;5.23;4.73;;;25.60;93.50;;;;;;5073768;28;20527;-73
2021/07/04 09:58:08;;;;;;;5.00;4.60;;;25.60;94.10;;;;;;5073816;28;20588;-73
2021/07/04 10:00:37;;;;;;;5.60;5.10;;;25.40;97.10;;;;;;5073714;28;20445;-73
2021/07/04 10:03:16;;;;;;;5.73;4.60;;;25.40;94.80;;;;;;5073843;28;20441;-73
2021/07/04 10:05:45;;;;;;;5.73;5.20;;;25.40;95.90;;;;;;5073669;28;20482;-73
2021/07/04 10:08:23;;;;;;;3.80;3.50;;;26.30;95.90;;;;;;5073964;28;20831;-73
2021/07/04 10:10:52;;;;;;;4.60;4.20;;;27.20;90.70;;;;;;5073752;28;20447;-73
2021/07/04 10:13:19;;;;;;;5.30;4.60;;;27.20;91.50;;;;;;5073707;28;20448;-73
2021/07/04 10:15:46;;;;;;;5.00;4.60;;;27.50;92.40;;;;;;5073660;28;20524;-73
2021/07/04 10:18:16;;;;;;;4.90;4.40;;;27.50;92.00;;;;;;5073668;28;20487;-74
2021/07/04 10:20:44;;;;;;;4.80;4.40;;;27.50;91.10;;;;;;5073939;28;20514;-74
2021/07/04 10:23:13;;;;;;;4.63;4.10;;;27.60;90.70;;;;;;5074162;28;20453;-74
2021/07/04 10:25:42;;;;;;;4.53;4.20;;;28.30;87.90;;;;;;5073916;28;20444;-74
2021/07/04 10:28:12;;;;;;;4.63;4.23;;;28.50;84.50;;;;;;5073671;28;20534;-74
2021/07/04 10:30:40;;;;;;;4.27;3.97;;;28.50;85.90;;;;;;5073620;28;20446;-73
2021/07/04 10:33:14;;;;;;;4.47;4.07;;;28.30;83.40;;;;;;5073993;28;20465;-73
2021/07/04 10:36:07;;;;;;;4.30;3.90;;;27.90;84.60;;;;;;5073866;28;20531;-73
2021/07/04 10:38:55;;;;;;;4.33;4.03;;;27.80;86.60;;;;;;5062606;28;20576;-74
2021/07/04 10:41:25;;;;;;;5.10;4.70;;;27.30;87.30;;;;;;5072804;28;20456;-74
2021/07/04 10:44:05;;;;;;;4.90;4.20;;;26.90;90.00;;;;;;5077675;28;20852;-74
2021/07/04 10:47:19;;;;;;;4.67;4.27;;;26.80;90.40;;;;;;5077485;28;20463;-73
2021/07/04 10:49:52;;;;;;;4.70;4.30;;;26.50;92.20;;;;;;5077427;28;20479;-73
2021/07/04 10:52:22;;;;;;;4.60;4.20;;;26.20;93.10;;;;;;5077448;28;20443;-73
2021/07/04 10:54:54;;;;;;;4.63;4.23;;;26.00;93.80;;;;;;5077475;28;20436;-73
2021/07/04 10:57:26;;;;;;;4.50;4.07;;;26.00;93.30;;;;;;5077581;28;20551;-73
2021/07/04 11:00:25;;;;;;;4.50;4.10;;;25.90;93.10;;;;;;5077210;28;20881;-73
2021/07/04 11:02:56;;;;;;;4.30;4.00;;;25.90;92.30;;;;;;5078085;28;20799;-74
2021/07/04 11:05:48;;;;;;;5.00;4.50;;;25.90;93.70;;;;;;5077606;28;20452;-73
2021/07/04 11:08:27;;;;;;;4.20;3.87;;;25.70;94.30;;;;;;5077726;28;20463;-73
2021/07/04 11:11:06;;;;;;;4.33;3.93;;;25.60;93.90;;;;;;5077301;28;20482;-74
2021/07/04 11:13:49;;;;;;;4.47;4.17;;;25.50;93.80;;;;;;5077447;28;20923;-73
2021/07/04 11:16:26;;;;;;;4.83;4.43;;;25.50;93.20;;;;;;5077244;28;20454;-74
2021/07/04 11:19:11;;;;;;;4.30;4.00;;;25.40;93.80;;;;;;5077256;28;20500;-74
2021/07/04 11:22:02;;;;;;;4.87;4.47;;;25.50;94.10;;;;;;5074441;28;20455;-73
2021/07/04 11:24:30;;;;;;;4.70;4.30;;;25.60;93.30;;;;;;5062224;28;20470;-74
2021/07/04 11:27:24;;;;;;;5.13;4.63;;;25.50;94.90;;;;;;5076998;28;20453;-73
2021/07/04 11:30:24;;;;;;;4.93;4.53;;;25.50;93.90;;;;;;5077258;28;20436;-72
2021/07/04 11:33:38;;;;;;;5.00;4.60;;;25.20;93.00;;;;;;5077098;28;20826;-73
2021/07/04 11:36:08;;;;;;;5.10;4.70;;;25.00;96.50;;;;;;5029909;28;20465;-74
2021/07/04 11:38:37;;;;;;;5.13;4.73;;;25.00;94.90;;;;;;5076973;28;20913;-73
2021/07/04 11:41:06;;;;;;;4.57;4.17;;;25.10;94.80;;;;;;5076461;28;20555;-74
2021/07/04 11:43:34;;;;;;;4.80;4.30;;;25.20;95.40;;;;;;5076857;28;20531;-73
2021/07/04 11:46:02;;;;;;;5.00;4.60;;;25.20;93.70;;;;;;5076564;28;20449;-73
2021/07/04 11:48:57;;;;;;;6.13;5.53;;;25.20;96.90;;;;;;5076427;28;20886;-73
2021/07/04 11:51:45;;;;;;;4.97;4.57;;;25.10;97.90;;;;;;5076641;28;20458;-74
2021/07/04 11:54:15;;;;;;;4.90;4.50;;;25.10;97.50;;;;;;5076704;28;20445;-73
2021/07/04 11:56:44;;;;;;;4.67;4.37;;;25.00;95.20;;;;;;5076316;28;20474;-73
2021/07/04 11:59:14;;;;;;;4.10;3.80;;;25.10;95.80;;;;;;5076041;28;20571;-74
2021/07/04 12:01:52;;;;;;;4.87;4.43;;;25.20;95.80;;;;;;5076069;28;20531;-74
2021/07/04 12:04:29;;;;;;;4.90;4.50;;;25.30;95.70;;;;;;5076551;28;20449;-73
2021/07/04 12:06:59;;;;;;;4.70;4.30;;;25.20;95.30;;;;;;5076519;28;20472;-73
2021/07/04 12:09:38;;;;;;;4.77;4.37;;;25.00;97.80;;;;;;5077119;28;20899;-73
2021/07/04 12:12:07;;;;;;;7.03;6.33;;;25.00;96.90;;;;;;5076572;28;20453;-74
2021/07/04 12:14:35;;;;;;;5.60;5.10;;;25.00;95.50;;;;;;5076826;28;20451;-73
2021/07/04 12:17:36;;;;;;;5.10;4.70;;;24.70;97.20;;;;;;5076479;28;20966;-73
2021/07/04 12:20:11;;;;;;;4.93;4.53;;;24.60;97.50;;;;;;5071468;28;20475;-73
2021/07/04 12:22:41;;;;;;;5.03;4.63;;;24.50;98.70;;;;;;5075594;28;20918;-73
2021/07/04 12:25:17;;;;;;;6.00;5.17;;;24.50;98.60;;;;;;5075738;28;20538;-73
2021/07/04 12:27:46;;;;;;;5.17;4.67;;;24.50;96.40;;;;;;5075717;28;20471;-73
2021/07/04 12:30:17;;;;;;;5.63;5.23;;;24.60;96.90;;;;;;5075480;28;20439;-73
2021/07/04 12:32:46;;;;;;;5.77;5.30;;;24.60;97.40;;;;;;5075531;28;20480;-73
2021/07/04 12:35:28;;;;;;;5.40;5.00;;;24.80;96.60;;;;;;5075498;28;20643;-73
2021/07/04 12:37:59;;;;;;;7.17;6.57;;;24.80;96.60;;;;;;5075408;28;20472;-73
2021/07/04 12:40:28;;;;;;;6.20;5.70;;;24.90;97.00;;;;;;5075146;28;20495;-73
2021/07/04 12:43:07;;;;;;;5.53;5.13;;;25.00;96.20;;;;;;5075275;28;20811;-73
2021/07/04 12:45:34;;;;;;;5.40;5.00;;;25.10;96.00;;;;;;5075240;28;20966;-73
2021/07/04 12:48:03;;;;;;;5.07;4.67;;;25.10;95.10;;;;;;5074911;28;20476;-73
2021/07/04 12:50:42;;;;;;;5.83;5.23;;;25.30;95.10;;;;;;5074983;28;20524;-73
2021/07/04 12:53:10;;;;;;;6.53;5.93;;;25.50;95.80;;;;;;5075149;28;20443;-73
2021/07/04 12:55:40;;;;;;;5.13;4.70;;;25.60;95.30;;;;;;5075135;28;20539;-73
2021/07/04 12:58:35;;;;;;;5.10;4.70;;;25.60;94.50;;;;;;5074955;28;20551;-73
2021/07/04 13:01:20;;;;;;;5.50;5.10;;;25.80;95.20;;;;;;5038736;28;20445;-73